sensor_id;sensor_type;location;lat;lon;timestamp;pressure;altitude;pressure_sealevel;temperature;humidity
66664;BME280;59683;51.428;-1.994;2023-05-24T07:17:05;101836.66;;;17.89;100.00
66664;BME280;59683;51.428;-1.994;2023-05-24T07:19:31;101834.25;;;18.05;100.00
66664;BME280;59683;51.428;-1.994;2023-05-24T07:21:58;101836.31;;;18.50;100.00
66664;BME280;59683;51.428;-1.994;2023-05-24T07:24:23;101846.16;;;18.88;100.00
66664;BME280;59683;51.428;-1.994;2023-05-24T07:26:50;101857.03;;;18.67;100.00
66664;BME280;59683;51.428;-1.994;2023-05-24T07:29:16;101846.56;;;19.21;99.97
66664;BME280;59683;51.428;-1.994;2023-05-24T07:31:41;101849.69;;;19.16;100.00
66664;BME280;59683;51.428;-1.994;2023-05-24T07:34:07;101853.28;;;19.35;100.00
66664;BME280;59683;51.428;-1.994;2023-05-24T07:36:33;101847.66;;;19.83;92.10
66664;BME280;59683;51.428;-1.994;2023-05-24T07:38:58;101844.72;;;19.49;94.65
66664;BME280;59683;51.428;-1.994;2023-05-24T07:41:26;101849.31;;;19.84;92.36
66664;BME280;59683;51.428;-1.994;2023-05-24T07:43:53;101837.03;;;19.82;90.26
66664;BME280;59683;51.428;-1.994;2023-05-24T07:46:18;101840.75;;;20.17;86.94
66664;BME280;59683;51.428;-1.994;2023-05-24T07:48:44;101845.41;;;20.14;80.17
66664;BME280;59683;51.428;-1.994;2023-05-24T07:51:10;101838.13;;;19.89;87.39
66664;BME280;59683;51.428;-1.994;2023-05-24T07:53:35;101840.19;;;19.95;82.00
66664;BME280;59683;51.428;-1.994;2023-05-24T07:56:01;101835.06;;;19.84;91.31
66664;BME280;59683;51.428;-1.994;2023-05-24T07:58:27;101840.44;;;20.02;90.05
66664;BME280;59683;51.428;-1.994;2023-05-24T08:00:52;101843.25;;;20.36;86.54
66664;BME280;59683;51.428;-1.994;2023-05-24T08:03:18;101829.16;;;20.16;85.56
66664;BME280;59683;51.428;-1.994;2023-05-24T08:09:05;101837.44;;;20.49;83.42
66664;BME280;59683;51.428;-1.994;2023-05-24T08:11:32;101824.72;;;20.51;83.22
66664;BME280;59683;51.428;-1.994;2023-05-24T08:13:57;101826.88;;;20.29;93.58
66664;BME280;59683;51.428;-1.994;2023-05-24T08:16:23;101822.72;;;20.53;92.27
66664;BME280;59683;51.428;-1.994;2023-05-24T08:18:48;101824.34;;;21.06;86.46
66664;BME280;59683;51.428;-1.994;2023-05-24T08:21:14;101829.91;;;21.04;79.63
66664;BME280;59683;51.428;-1.994;2023-05-24T08:23:39;101828.81;;;21.23;85.33
66664;BME280;59683;51.428;-1.994;2023-05-24T08:26:05;101820.91;;;21.22;78.55
66664;BME280;59683;51.428;-1.994;2023-05-24T08:28:30;101829.50;;;21.25;78.44
66664;BME280;59683;51.428;-1.994;2023-05-24T08:30:56;101828.47;;;21.69;78.65
66664;BME280;59683;51.428;-1.994;2023-05-24T08:33:22;101834.03;;;21.75;71.75
66664;BME280;59683;51.428;-1.994;2023-05-24T08:35:49;101838.22;;;21.19;80.31
66664;BME280;59683;51.428;-1.994;2023-05-24T08:38:15;101825.91;;;21.17;74.55
66664;BME280;59683;51.428;-1.994;2023-05-24T08:40:41;101823.69;;;21.04;81.00
66664;BME280;59683;51.428;-1.994;2023-05-24T08:56:39;101808.22;;;21.40;74.05
66664;BME280;59683;51.428;-1.994;2023-05-24T08:59:07;101811.22;;;21.37;70.14
66664;BME280;59683;51.428;-1.994;2023-05-24T09:01:33;101818.88;;;21.74;70.88
66664;BME280;59683;51.428;-1.994;2023-05-24T09:06:35;101808.06;;;21.66;71.00
66664;BME280;59683;51.428;-1.994;2023-05-24T09:09:02;101801.56;;;22.01;64.97
66664;BME280;59683;51.428;-1.994;2023-05-24T09:11:30;101796.81;;;22.44;61.76
66664;BME280;59683;51.428;-1.994;2023-05-24T09:13:56;101796.97;;;22.59;61.35
66664;BME280;59683;51.428;-1.994;2023-05-24T09:16:22;101805.00;;;22.84;58.30
66664;BME280;59683;51.428;-1.994;2023-05-24T09:18:47;101802.34;;;22.59;58.21
66664;BME280;59683;51.428;-1.994;2023-05-24T09:21:13;101798.84;;;22.10;59.36
66664;BME280;59683;51.428;-1.994;2023-05-24T09:23:40;101797.78;;;21.45;70.95
66664;BME280;59683;51.428;-1.994;2023-05-24T09:26:06;101789.41;;;21.81;71.95
66664;BME280;59683;51.428;-1.994;2023-05-24T09:28:32;101785.50;;;22.65;57.14
66664;BME280;59683;51.428;-1.994;2023-05-24T09:30:59;101792.75;;;22.48;56.05
66664;BME280;59683;51.428;-1.994;2023-05-24T09:33:32;101790.78;;;22.42;61.88
66664;BME280;59683;51.428;-1.994;2023-05-24T09:36:02;101798.13;;;22.73;57.43
66664;BME280;59683;51.428;-1.994;2023-05-24T09:38:28;101793.31;;;22.99;58.88
66664;BME280;59683;51.428;-1.994;2023-05-24T09:41:05;101796.72;;;22.93;59.56
66664;BME280;59683;51.428;-1.994;2023-05-24T09:43:32;101798.94;;;22.73;56.74
66664;BME280;59683;51.428;-1.994;2023-05-24T09:46:04;101795.34;;;22.89;56.29
66664;BME280;59683;51.428;-1.994;2023-05-24T09:48:30;101786.03;;;23.08;58.83
66664;BME280;59683;51.428;-1.994;2023-05-24T09:51:06;101786.56;;;23.35;51.84
66664;BME280;59683;51.428;-1.994;2023-05-24T09:53:34;101781.94;;;23.74;51.53
66664;BME280;59683;51.428;-1.994;2023-05-24T09:56:02;101771.00;;;23.68;47.98
66664;BME280;59683;51.428;-1.994;2023-05-24T09:58:32;101782.34;;;23.63;49.46
66664;BME280;59683;51.428;-1.994;2023-05-24T10:01:08;101768.31;;;23.68;49.19
66664;BME280;59683;51.428;-1.994;2023-05-24T10:03:51;101775.34;;;23.46;47.33
66664;BME280;59683;51.428;-1.994;2023-05-24T10:06:17;101760.63;;;23.25;48.27
66664;BME280;59683;51.428;-1.994;2023-05-24T10:08:43;101760.50;;;23.42;51.58
66664;BME280;59683;51.428;-1.994;2023-05-24T10:11:08;101759.34;;;23.90;48.71
66664;BME280;59683;51.428;-1.994;2023-05-24T10:13:35;101758.94;;;24.16;49.86
66664;BME280;59683;51.428;-1.994;2023-05-24T10:16:01;101757.00;;;24.25;49.70
66664;BME280;59683;51.428;-1.994;2023-05-24T10:18:27;101755.84;;;24.05;50.77
66664;BME280;59683;51.428;-1.994;2023-05-24T10:20:54;101762.22;;;24.12;48.28
66664;BME280;59683;51.428;-1.994;2023-05-24T10:23:21;101758.91;;;24.39;46.93
66664;BME280;59683;51.428;-1.994;2023-05-24T10:26:04;101762.34;;;24.48;47.76
66664;BME280;59683;51.428;-1.994;2023-05-24T10:28:41;101748.94;;;24.55;45.00
66664;BME280;59683;51.428;-1.994;2023-05-24T10:31:23;101752.34;;;24.93;45.59
66664;BME280;59683;51.428;-1.994;2023-05-24T10:33:49;101755.38;;;24.39;43.46
66664;BME280;59683;51.428;-1.994;2023-05-24T10:36:16;101751.19;;;24.13;46.29
66664;BME280;59683;51.428;-1.994;2023-05-24T10:38:45;101749.28;;;23.99;45.62
66664;BME280;59683;51.428;-1.994;2023-05-24T10:41:11;101744.28;;;23.73;46.93
66664;BME280;59683;51.428;-1.994;2023-05-24T10:43:38;101752.22;;;24.12;47.76
66664;BME280;59683;51.428;-1.994;2023-05-24T10:46:04;101749.69;;;24.11;45.65
66664;BME280;59683;51.428;-1.994;2023-05-24T10:48:36;101743.72;;;24.68;45.14
66664;BME280;59683;51.428;-1.994;2023-05-24T10:51:36;101752.56;;;24.91;45.13
66664;BME280;59683;51.428;-1.994;2023-05-24T10:54:15;101760.50;;;24.63;46.40
66664;BME280;59683;51.428;-1.994;2023-05-24T10:56:49;101755.16;;;25.00;44.38
66664;BME280;59683;51.428;-1.994;2023-05-24T10:59:42;101763.44;;;25.28;44.43
66664;BME280;59683;51.428;-1.994;2023-05-24T11:02:09;101748.19;;;24.46;42.97
66664;BME280;59683;51.428;-1.994;2023-05-24T11:04:41;101762.75;;;24.07;44.03
66664;BME280;59683;51.428;-1.994;2023-05-24T11:07:08;101751.41;;;24.27;46.73
66664;BME280;59683;51.428;-1.994;2023-05-24T11:09:36;101757.97;;;24.77;42.89
66664;BME280;59683;51.428;-1.994;2023-05-24T11:12:08;101761.72;;;24.76;43.78
66664;BME280;59683;51.428;-1.994;2023-05-24T11:14:36;101760.06;;;25.26;41.42
66664;BME280;59683;51.428;-1.994;2023-05-24T11:17:03;101755.53;;;24.82;43.21
66664;BME280;59683;51.428;-1.994;2023-05-24T11:19:38;101749.72;;;25.00;42.58
66664;BME280;59683;51.428;-1.994;2023-05-24T11:22:09;101748.47;;;25.32;43.28
66664;BME280;59683;51.428;-1.994;2023-05-24T11:24:36;101754.47;;;25.49;42.89
66664;BME280;59683;51.428;-1.994;2023-05-24T11:27:02;101752.44;;;25.51;43.62
66664;BME280;59683;51.428;-1.994;2023-05-24T11:29:28;101762.22;;;25.95;39.73
66664;BME280;59683;51.428;-1.994;2023-05-24T11:31:56;101763.28;;;25.51;41.44
66664;BME280;59683;51.428;-1.994;2023-05-24T11:34:22;101756.44;;;25.18;41.35
66664;BME280;59683;51.428;-1.994;2023-05-24T11:36:49;101757.91;;;25.57;42.36
66664;BME280;59683;51.428;-1.994;2023-05-24T11:39:16;101757.09;;;26.00;42.48
66664;BME280;59683;51.428;-1.994;2023-05-24T11:41:42;101757.84;;;25.94;41.68
66664;BME280;59683;51.428;-1.994;2023-05-24T11:44:09;101755.78;;;26.24;40.62
66664;BME280;59683;51.428;-1.994;2023-05-24T11:46:37;101753.25;;;25.94;39.44
66664;BME280;59683;51.428;-1.994;2023-05-24T11:49:03;101755.84;;;25.59;40.40
66664;BME280;59683;51.428;-1.994;2023-05-24T11:51:30;101748.78;;;25.65;41.30
66664;BME280;59683;51.428;-1.994;2023-05-24T11:53:56;101746.16;;;25.72;41.99
66664;BME280;59683;51.428;-1.994;2023-05-24T11:56:28;101744.94;;;25.74;41.96
66664;BME280;59683;51.428;-1.994;2023-05-24T11:59:02;101741.22;;;26.31;38.94
66664;BME280;59683;51.428;-1.994;2023-05-24T12:01:30;101738.41;;;25.68;39.35
66664;BME280;59683;51.428;-1.994;2023-05-24T12:03:55;101727.53;;;26.11;39.76
66664;BME280;59683;51.428;-1.994;2023-05-24T12:06:21;101739.66;;;26.15;40.12
66664;BME280;59683;51.428;-1.994;2023-05-24T12:08:47;101730.84;;;26.07;38.58
66664;BME280;59683;51.428;-1.994;2023-05-24T12:11:14;101732.19;;;27.00;36.64
66664;BME280;59683;51.428;-1.994;2023-05-24T12:13:40;101733.25;;;26.99;38.08
66664;BME280;59683;51.428;-1.994;2023-05-24T12:16:06;101733.66;;;26.90;36.95
66664;BME280;59683;51.428;-1.994;2023-05-24T12:18:32;101731.50;;;26.78;36.73
66664;BME280;59683;51.428;-1.994;2023-05-24T12:20:57;101721.63;;;27.12;35.77
66664;BME280;59683;51.428;-1.994;2023-05-24T12:23:26;101716.88;;;27.41;34.67
66664;BME280;59683;51.428;-1.994;2023-05-24T12:26:00;101716.34;;;27.10;34.50
66664;BME280;59683;51.428;-1.994;2023-05-24T12:28:26;101722.72;;;26.76;33.90
66664;BME280;59683;51.428;-1.994;2023-05-24T12:30:52;101712.72;;;27.71;32.67
66664;BME280;59683;51.428;-1.994;2023-05-24T12:33:18;101720.44;;;27.34;34.87
66664;BME280;59683;51.428;-1.994;2023-05-24T12:35:46;101715.22;;;27.40;34.75
66664;BME280;59683;51.428;-1.994;2023-05-24T12:38:12;101730.06;;;27.44;34.08
66664;BME280;59683;51.428;-1.994;2023-05-24T12:40:41;101717.75;;;27.61;34.39
66664;BME280;59683;51.428;-1.994;2023-05-24T12:43:08;101711.19;;;27.22;34.03
66664;BME280;59683;51.428;-1.994;2023-05-24T12:45:35;101709.75;;;27.33;35.53
66664;BME280;59683;51.428;-1.994;2023-05-24T12:48:01;101703.25;;;27.21;35.99
66664;BME280;59683;51.428;-1.994;2023-05-24T12:50:29;101692.13;;;28.55;32.02
66664;BME280;59683;51.428;-1.994;2023-05-24T12:55:30;101692.00;;;27.44;35.59
66664;BME280;59683;51.428;-1.994;2023-05-24T12:57:57;101698.47;;;27.36;34.84
66664;BME280;59683;51.428;-1.994;2023-05-24T13:00:24;101691.38;;;27.55;35.62
66664;BME280;59683;51.428;-1.994;2023-05-24T13:02:53;101694.34;;;27.80;34.58
66664;BME280;59683;51.428;-1.994;2023-05-24T13:05:22;101690.97;;;28.11;33.52
66664;BME280;59683;51.428;-1.994;2023-05-24T13:07:48;101688.38;;;28.49;34.67
66664;BME280;59683;51.428;-1.994;2023-05-24T13:10:14;101684.88;;;28.22;33.88
66664;BME280;59683;51.428;-1.994;2023-05-24T13:12:40;101689.00;;;28.51;34.96
66664;BME280;59683;51.428;-1.994;2023-05-24T13:15:06;101684.63;;;28.44;33.42
66664;BME280;59683;51.428;-1.994;2023-05-24T13:17:33;101677.47;;;28.56;32.17
66664;BME280;59683;51.428;-1.994;2023-05-24T13:20:02;101677.91;;;28.40;34.10
66664;BME280;59683;51.428;-1.994;2023-05-24T13:22:31;101677.13;;;28.13;33.41
66664;BME280;59683;51.428;-1.994;2023-05-24T13:24:56;101682.63;;;28.71;32.92
66664;BME280;59683;51.428;-1.994;2023-05-24T13:27:22;101690.91;;;29.34;32.50
66664;BME280;59683;51.428;-1.994;2023-05-24T13:29:47;101684.75;;;29.70;29.80
66664;BME280;59683;51.428;-1.994;2023-05-24T13:32:14;101677.59;;;28.74;30.40
66664;BME280;59683;51.428;-1.994;2023-05-24T13:34:40;101681.44;;;29.05;30.84
66664;BME280;59683;51.428;-1.994;2023-05-24T13:37:05;101678.41;;;29.20;31.27
66664;BME280;59683;51.428;-1.994;2023-05-24T13:39:32;101660.84;;;28.71;31.83
66664;BME280;59683;51.428;-1.994;2023-05-24T13:41:59;101677.63;;;29.13;31.41
66664;BME280;59683;51.428;-1.994;2023-05-24T13:44:25;101686.78;;;29.18;29.93
66664;BME280;59683;51.428;-1.994;2023-05-24T13:46:53;101667.66;;;28.93;29.71
66664;BME280;59683;51.428;-1.994;2023-05-24T13:49:18;101667.69;;;29.50;30.53
66664;BME280;59683;51.428;-1.994;2023-05-24T13:51:44;101685.75;;;29.19;30.70
66664;BME280;59683;51.428;-1.994;2023-05-24T13:54:11;101674.00;;;29.50;29.55
66664;BME280;59683;51.428;-1.994;2023-05-24T13:56:36;101674.47;;;29.16;30.64
66664;BME280;59683;51.428;-1.994;2023-05-24T13:59:04;101670.31;;;29.38;30.47
66664;BME280;59683;51.428;-1.994;2023-05-24T14:01:30;101670.78;;;29.28;30.43
66664;BME280;59683;51.428;-1.994;2023-05-24T14:03:56;101669.53;;;29.56;30.54
66664;BME280;59683;51.428;-1.994;2023-05-24T14:06:21;101666.34;;;29.66;30.22
66664;BME280;59683;51.428;-1.994;2023-05-24T14:08:47;101665.13;;;29.30;31.52
66664;BME280;59683;51.428;-1.994;2023-05-24T14:11:13;101664.50;;;29.28;30.86
66664;BME280;59683;51.428;-1.994;2023-05-24T14:13:42;101663.38;;;29.67;30.13
66664;BME280;59683;51.428;-1.994;2023-05-24T14:16:08;101666.56;;;29.64;30.06
66664;BME280;59683;51.428;-1.994;2023-05-24T14:18:34;101668.28;;;29.59;30.05
66664;BME280;59683;51.428;-1.994;2023-05-24T14:21:00;101650.50;;;29.74;30.36
66664;BME280;59683;51.428;-1.994;2023-05-24T14:23:25;101663.03;;;30.44;27.92
66664;BME280;59683;51.428;-1.994;2023-05-24T14:25:51;101658.72;;;29.93;29.26
66664;BME280;59683;51.428;-1.994;2023-05-24T14:28:17;101661.47;;;30.11;28.83
66664;BME280;59683;51.428;-1.994;2023-05-24T14:30:43;101650.34;;;30.13;29.11
66664;BME280;59683;51.428;-1.994;2023-05-24T14:33:08;101653.59;;;30.03;29.07
66664;BME280;59683;51.428;-1.994;2023-05-24T14:35:36;101649.19;;;29.84;29.01
66664;BME280;59683;51.428;-1.994;2023-05-24T14:38:05;101650.44;;;29.81;29.01
66664;BME280;59683;51.428;-1.994;2023-05-24T14:40:31;101650.91;;;30.21;29.60
66664;BME280;59683;51.428;-1.994;2023-05-24T14:42:58;101647.66;;;29.88;29.49
66664;BME280;59683;51.428;-1.994;2023-05-24T14:45:24;101658.97;;;30.83;27.18
66664;BME280;59683;51.428;-1.994;2023-05-24T14:47:49;101644.78;;;29.83;28.83
66664;BME280;59683;51.428;-1.994;2023-05-24T14:50:15;101646.69;;;30.00;29.44
66664;BME280;59683;51.428;-1.994;2023-05-24T14:52:40;101641.47;;;29.99;28.31
66664;BME280;59683;51.428;-1.994;2023-05-24T14:55:06;101637.72;;;30.18;29.17
66664;BME280;59683;51.428;-1.994;2023-05-24T14:57:32;101646.16;;;30.10;29.45
66664;BME280;59683;51.428;-1.994;2023-05-24T14:59:57;101637.34;;;30.08;29.61
66664;BME280;59683;51.428;-1.994;2023-05-24T15:02:23;101638.09;;;29.79;29.93
66664;BME280;59683;51.428;-1.994;2023-05-24T15:04:48;101640.38;;;30.25;28.40
66664;BME280;59683;51.428;-1.994;2023-05-24T15:07:13;101641.22;;;31.04;27.02
66664;BME280;59683;51.428;-1.994;2023-05-24T15:09:39;101636.03;;;30.17;29.72
66664;BME280;59683;51.428;-1.994;2023-05-24T15:12:05;101644.03;;;30.12;29.35
66664;BME280;59683;51.428;-1.994;2023-05-24T15:14:31;101633.59;;;30.09;29.49
66664;BME280;59683;51.428;-1.994;2023-05-24T15:16:57;101636.78;;;30.06;29.33
66664;BME280;59683;51.428;-1.994;2023-05-24T15:19:22;101635.97;;;29.81;31.49
66664;BME280;59683;51.428;-1.994;2023-05-24T15:21:47;101647.41;;;30.33;30.35
66664;BME280;59683;51.428;-1.994;2023-05-24T15:24:13;101634.25;;;30.60;29.71
66664;BME280;59683;51.428;-1.994;2023-05-24T15:26:39;101631.94;;;29.65;30.87
66664;BME280;59683;51.428;-1.994;2023-05-24T15:29:04;101629.09;;;30.15;30.41
66664;BME280;59683;51.428;-1.994;2023-05-24T15:31:30;101635.56;;;29.59;31.39
66664;BME280;59683;51.428;-1.994;2023-05-24T15:33:55;101636.09;;;30.47;30.26
66664;BME280;59683;51.428;-1.994;2023-05-24T15:36:20;101634.41;;;30.10;30.73
66664;BME280;59683;51.428;-1.994;2023-05-24T15:38:46;101624.63;;;29.84;31.17
66664;BME280;59683;51.428;-1.994;2023-05-24T15:41:11;101624.78;;;30.07;31.59
66664;BME280;59683;51.428;-1.994;2023-05-24T15:43:37;101628.88;;;29.98;31.47
66664;BME280;59683;51.428;-1.994;2023-05-24T15:46:02;101626.44;;;30.08;31.05
66664;BME280;59683;51.428;-1.994;2023-05-24T15:48:27;101617.59;;;29.19;32.20
66664;BME280;59683;51.428;-1.994;2023-05-24T15:50:53;101623.06;;;28.29;34.11
66664;BME280;59683;51.428;-1.994;2023-05-24T15:53:18;101621.88;;;28.05;33.54
66664;BME280;59683;51.428;-1.994;2023-05-24T15:55:44;101615.00;;;27.96;34.75
66664;BME280;59683;51.428;-1.994;2023-05-24T15:58:12;101623.47;;;28.33;34.62
66664;BME280;59683;51.428;-1.994;2023-05-24T16:00:38;101619.78;;;28.14;35.05
66664;BME280;59683;51.428;-1.994;2023-05-24T16:03:03;101622.09;;;28.04;34.39
66664;BME280;59683;51.428;-1.994;2023-05-24T16:05:28;101617.88;;;28.21;35.69
66664;BME280;59683;51.428;-1.994;2023-05-24T16:07:54;101620.81;;;28.71;33.48
66664;BME280;59683;51.428;-1.994;2023-05-24T16:10:19;101620.03;;;28.58;34.26
66664;BME280;59683;51.428;-1.994;2023-05-24T16:12:45;101620.56;;;29.43;32.89
66664;BME280;59683;51.428;-1.994;2023-05-24T16:15:10;101613.88;;;29.64;31.17
66664;BME280;59683;51.428;-1.994;2023-05-24T16:17:36;101621.97;;;30.14;31.22
66664;BME280;59683;51.428;-1.994;2023-05-24T16:20:02;101619.81;;;30.22;31.61
66664;BME280;59683;51.428;-1.994;2023-05-24T16:22:28;101619.34;;;29.64;31.90
66664;BME280;59683;51.428;-1.994;2023-05-24T16:24:54;101616.28;;;27.74;34.94
66664;BME280;59683;51.428;-1.994;2023-05-24T16:27:20;101610.31;;;26.71;36.44
66664;BME280;59683;51.428;-1.994;2023-05-24T16:29:45;101611.06;;;26.10;38.91
66664;BME280;59683;51.428;-1.994;2023-05-24T16:32:13;101597.44;;;25.40;39.91
66664;BME280;59683;51.428;-1.994;2023-05-24T16:34:39;101611.81;;;25.41;40.08
66664;BME280;59683;51.428;-1.994;2023-05-24T16:37:05;101603.47;;;25.00;41.13
66664;BME280;59683;51.428;-1.994;2023-05-24T16:39:30;101601.53;;;24.93;41.68
66664;BME280;59683;51.428;-1.994;2023-05-24T16:41:56;101600.28;;;24.53;43.76
66664;BME280;59683;51.428;-1.994;2023-05-24T16:44:22;101598.22;;;24.55;44.32
66664;BME280;59683;51.428;-1.994;2023-05-24T16:46:47;101591.53;;;24.73;46.00
66664;BME280;59683;51.428;-1.994;2023-05-24T16:49:13;101600.38;;;25.74;42.75
66664;BME280;59683;51.428;-1.994;2023-05-24T16:51:38;101598.88;;;26.34;41.39
66664;BME280;59683;51.428;-1.994;2023-05-24T16:54:04;101586.72;;;26.78;40.69
66664;BME280;59683;51.428;-1.994;2023-05-24T16:56:29;101595.78;;;27.11;40.46
66664;BME280;59683;51.428;-1.994;2023-05-24T16:58:55;101593.94;;;27.39;38.09
66664;BME280;59683;51.428;-1.994;2023-05-24T17:01:21;101599.09;;;27.87;37.42
66664;BME280;59683;51.428;-1.994;2023-05-24T17:03:46;101596.84;;;27.17;39.07
66664;BME280;59683;51.428;-1.994;2023-05-24T17:06:12;101607.59;;;26.71;40.93
66664;BME280;59683;51.428;-1.994;2023-05-24T17:08:37;101605.28;;;26.20;41.86
66664;BME280;59683;51.428;-1.994;2023-05-24T17:11:03;101605.91;;;25.59;44.77
66664;BME280;59683;51.428;-1.994;2023-05-24T17:13:29;101605.94;;;24.94;46.54
66664;BME280;59683;51.428;-1.994;2023-05-24T17:15:55;101602.25;;;24.15;51.88
66664;BME280;59683;51.428;-1.994;2023-05-24T17:18:23;101589.97;;;23.60;55.40
66664;BME280;59683;51.428;-1.994;2023-05-24T17:21:04;101594.75;;;22.89;58.67
66664;BME280;59683;51.428;-1.994;2023-05-24T17:23:32;101605.66;;;22.41;67.19
66664;BME280;59683;51.428;-1.994;2023-05-24T17:25:59;101594.66;;;21.95;74.84
66664;BME280;59683;51.428;-1.994;2023-05-24T17:28:26;101596.09;;;21.58;77.56
66664;BME280;59683;51.428;-1.994;2023-05-24T17:30:52;101598.28;;;21.22;85.15
66664;BME280;59683;51.428;-1.994;2023-05-24T17:33:20;101598.44;;;20.96;96.72
66664;BME280;59683;51.428;-1.994;2023-05-24T17:35:46;101596.03;;;20.77;97.14
66664;BME280;59683;51.428;-1.994;2023-05-24T17:38:11;101598.66;;;20.60;100.00
66664;BME280;59683;51.428;-1.994;2023-05-24T17:40:36;101604.66;;;20.46;100.00
66664;BME280;59683;51.428;-1.994;2023-05-24T17:43:02;101609.31;;;20.36;100.00
66664;BME280;59683;51.428;-1.994;2023-05-24T17:45:27;101611.09;;;20.19;100.00
66664;BME280;59683;51.428;-1.994;2023-05-24T17:47:53;101599.13;;;20.05;100.00
66664;BME280;59683;51.428;-1.994;2023-05-24T17:50:18;101609.47;;;20.00;100.00
66664;BME280;59683;51.428;-1.994;2023-05-24T17:52:44;101603.72;;;19.87;100.00
66664;BME280;59683;51.428;-1.994;2023-05-24T17:55:09;101609.34;;;19.76;100.00
66664;BME280;59683;51.428;-1.994;2023-05-24T17:57:37;101610.28;;;19.67;100.00
66664;BME280;59683;51.428;-1.994;2023-05-24T18:00:03;101605.81;;;19.57;100.00
66664;BME280;59683;51.428;-1.994;2023-05-24T18:02:29;101608.59;;;19.48;100.00
66664;BME280;59683;51.428;-1.994;2023-05-24T18:04:54;101604.16;;;19.38;100.00
66664;BME280;59683;51.428;-1.994;2023-05-24T18:07:20;101610.00;;;19.34;100.00
66664;BME280;59683;51.428;-1.994;2023-05-24T18:09:45;101607.28;;;19.26;100.00
66664;BME280;59683;51.428;-1.994;2023-05-24T18:12:10;101608.00;;;19.18;100.00
66664;BME280;59683;51.428;-1.994;2023-05-24T18:14:36;101609.47;;;19.12;100.00
66664;BME280;59683;51.428;-1.994;2023-05-24T18:17:02;101602.66;;;19.00;100.00
66664;BME280;59683;51.428;-1.994;2023-05-24T18:19:27;101605.66;;;18.97;100.00
66664;BME280;59683;51.428;-1.994;2023-05-24T18:21:53;101610.09;;;18.88;100.00
66664;BME280;59683;51.428;-1.994;2023-05-24T18:24:18;101605.94;;;18.76;100.00
66664;BME280;59683;51.428;-1.994;2023-05-24T18:26:44;101611.03;;;18.69;100.00
66664;BME280;59683;51.428;-1.994;2023-05-24T18:29:09;101612.63;;;18.62;100.00
66664;BME280;59683;51.428;-1.994;2023-05-24T18:31:35;101609.16;;;18.52;100.00
66664;BME280;59683;51.428;-1.994;2023-05-24T18:34:01;101619.63;;;18.45;100.00
66664;BME280;59683;51.428;-1.994;2023-05-24T18:36:27;101617.41;;;18.41;100.00
66664;BME280;59683;51.428;-1.994;2023-05-24T18:38:53;101625.19;;;18.34;100.00
66664;BME280;59683;51.428;-1.994;2023-05-24T18:41:18;101619.44;;;18.29;100.00
66664;BME280;59683;51.428;-1.994;2023-05-24T18:43:44;101614.25;;;18.18;100.00
66664;BME280;59683;51.428;-1.994;2023-05-24T18:46:09;101630.22;;;18.10;100.00
66664;BME280;59683;51.428;-1.994;2023-05-24T18:48:42;101630.25;;;18.00;100.00
66664;BME280;59683;51.428;-1.994;2023-05-24T18:51:08;101631.13;;;17.91;100.00
66664;BME280;59683;51.428;-1.994;2023-05-24T18:53:34;101632.00;;;17.82;100.00
66664;BME280;59683;51.428;-1.994;2023-05-24T18:56:00;101638.31;;;17.71;100.00
66664;BME280;59683;51.428;-1.994;2023-05-24T18:58:26;101637.78;;;17.58;100.00
66664;BME280;59683;51.428;-1.994;2023-05-24T19:00:51;101639.78;;;17.46;100.00
66664;BME280;59683;51.428;-1.994;2023-05-24T19:03:16;101647.53;;;17.39;100.00
66664;BME280;59683;51.428;-1.994;2023-05-24T19:05:42;101640.63;;;17.27;100.00
66664;BME280;59683;51.428;-1.994;2023-05-24T19:08:07;101634.00;;;17.12;100.00
66664;BME280;59683;51.428;-1.994;2023-05-24T19:10:33;101649.47;;;16.98;100.00
66664;BME280;59683;51.428;-1.994;2023-05-24T19:12:58;101642.66;;;16.85;100.00
66664;BME280;59683;51.428;-1.994;2023-05-24T19:15:25;101649.00;;;16.74;100.00
66664;BME280;59683;51.428;-1.994;2023-05-24T19:17:50;101654.28;;;16.64;100.00
66664;BME280;59683;51.428;-1.994;2023-05-24T19:20:17;101659.88;;;16.51;100.00
66664;BME280;59683;51.428;-1.994;2023-05-24T19:22:43;101652.66;;;16.42;100.00
66664;BME280;59683;51.428;-1.994;2023-05-24T19:25:08;101656.41;;;16.30;100.00
66664;BME280;59683;51.428;-1.994;2023-05-24T19:27:34;101659.03;;;16.20;100.00
66664;BME280;59683;51.428;-1.994;2023-05-24T19:29:59;101659.84;;;16.11;100.00
66664;BME280;59683;51.428;-1.994;2023-05-24T19:32:25;101660.75;;;16.00;100.00
66664;BME280;59683;51.428;-1.994;2023-05-24T19:34:50;101665.59;;;15.86;100.00
66664;BME280;59683;51.428;-1.994;2023-05-24T19:37:16;101665.66;;;15.74;100.00
66664;BME280;59683;51.428;-1.994;2023-05-24T19:39:42;101663.16;;;15.62;100.00
66664;BME280;59683;51.428;-1.994;2023-05-24T19:42:07;101667.69;;;15.50;100.00
66664;BME280;59683;51.428;-1.994;2023-05-24T19:44:32;101679.38;;;15.38;100.00
66664;BME280;59683;51.428;-1.994;2023-05-24T19:46:58;101674.06;;;15.26;100.00
66664;BME280;59683;51.428;-1.994;2023-05-24T19:49:23;101679.19;;;15.18;100.00
66664;BME280;59683;51.428;-1.994;2023-05-24T19:51:49;101674.16;;;15.04;100.00
66664;BME280;59683;51.428;-1.994;2023-05-24T19:54:14;101678.56;;;14.94;100.00
66664;BME280;59683;51.428;-1.994;2023-05-24T19:56:40;101681.25;;;14.82;100.00
66664;BME280;59683;51.428;-1.994;2023-05-24T19:59:05;101688.41;;;14.71;100.00
66664;BME280;59683;51.428;-1.994;2023-05-24T20:01:31;101695.44;;;14.61;100.00
66664;BME280;59683;51.428;-1.994;2023-05-24T20:03:57;101693.72;;;14.48;100.00
66664;BME280;59683;51.428;-1.994;2023-05-24T20:06:25;101688.63;;;14.34;100.00
66664;BME280;59683;51.428;-1.994;2023-05-24T20:08:50;101694.78;;;14.23;100.00
66664;BME280;59683;51.428;-1.994;2023-05-24T20:11:16;101691.25;;;14.12;100.00
66664;BME280;59683;51.428;-1.994;2023-05-24T20:13:42;101706.97;;;14.03;100.00